Time;durP1;ratioP1;P1;durP2;ratioP2;P2;SDS_P1;SDS_P2;PMS_P1;PMS_P2;Temp;Humidity;BMP_temperature;BMP_pressure;BME280_temperature;BME280_humidity;BME280_pressure;Samples;Min_cycle;Max_cycle;Signal;HPM_P1;HPM_P2
2021/10/15 00:02:18;;;;;;;17.38;9.75;;;;;;;-149.78;100.00;50297.38;5068019;28;20043;-71
2021/10/15 00:04:43;;;;;;;16.65;9.13;;;;;;;-149.78;100.00;50313.03;5052470;28;20028;-71
2021/10/15 00:07:09;;;;;;;15.18;9.40;;;;;;;-149.78;100.00;50322.81;5064560;28;20514;-71
2021/10/15 00:09:35;;;;;;;14.32;9.70;;;;;;;-149.78;100.00;50322.81;5053827;28;20120;-71
2021/10/15 00:12:01;;;;;;;18.70;10.55;;;;;;;-149.78;100.00;50322.81;5068115;28;20032;-71
2021/10/15 00:14:28;;;;;;;15.20;10.02;;;;;;;-149.78;100.00;50307.16;5064796;28;20029;-71
2021/10/15 00:16:54;;;;;;;20.40;11.45;;;;;;;-149.78;100.00;50318.91;5064504;28;20391;-71
2021/10/15 00:19:19;;;;;;;17.95;11.73;;;;;;;-149.78;100.00;50307.16;5062760;28;20542;-71
2021/10/15 00:21:46;;;;;;;19.23;11.70;;;;;;;-149.78;100.00;50293.47;5057709;28;20116;-71
2021/10/15 00:24:11;;;;;;;19.95;11.57;;;;;;;-149.78;100.00;50322.81;5069523;28;20111;-71
2021/10/15 00:26:37;;;;;;;16.48;11.07;;;;;;;-149.78;100.00;50314.97;5053127;28;20041;-71
2021/10/15 00:29:05;;;;;;;20.17;12.15;;;;;;;-149.78;100.00;50291.50;5051939;28;20055;-71
2021/10/15 00:31:31;;;;;;;17.95;11.70;;;;;;;-149.78;100.00;50305.22;5057503;28;20044;-71
2021/10/15 00:33:57;;;;;;;20.33;11.70;;;;;;;-149.78;100.00;50291.50;5064425;28;20070;-71
2021/10/15 00:36:23;;;;;;;18.80;11.18;;;;;;;-149.78;100.00;50305.22;5059180;28;20491;-71
2021/10/15 00:38:48;;;;;;;19.38;11.43;;;;;;;-149.78;100.00;50320.84;5055237;28;20488;-71
2021/10/15 00:41:17;;;;;;;18.25;11.38;;;;;;;-149.78;100.00;50299.34;5064084;28;20074;-71
2021/10/15 00:44:04;;;;;;;17.15;10.20;;;;;;;-149.78;100.00;50330.63;5061740;28;20116;-71
2021/10/15 00:46:30;;;;;;;17.65;10.70;;;;;;;-149.78;100.00;50328.69;5060445;28;20034;-71
2021/10/15 00:48:56;;;;;;;14.75;8.27;;;;;;;-149.78;100.00;50287.59;5065364;28;20033;-71
2021/10/15 00:51:21;;;;;;;11.50;7.45;;;;;;;-149.78;100.00;50330.63;5060818;28;20040;-71
2021/10/15 00:53:47;;;;;;;6.68;5.40;;;;;;;-149.78;100.00;50338.44;5061300;28;20369;-71
2021/10/15 00:56:13;;;;;;;6.75;5.07;;;;;;;-149.78;100.00;50328.69;5069961;28;20024;-71
2021/10/15 00:58:39;;;;;;;5.05;4.07;;;;;;;-149.78;100.00;50305.22;5065975;28;20024;-71
2021/10/15 01:01:05;;;;;;;4.78;3.80;;;;;;;-149.78;100.00;50275.88;5058464;28;20029;-71
2021/10/15 01:03:30;;;;;;;7.38;3.53;;;;;;;-149.78;100.00;50303.25;5048139;28;20074;-71
2021/10/15 01:05:56;;;;;;;4.38;3.47;;;;;;;-149.78;100.00;50314.97;5055254;28;20060;-71
2021/10/15 01:08:22;;;;;;;4.20;3.13;;;;;;;-149.78;100.00;50314.97;5072541;28;20036;-71
2021/10/15 01:10:48;;;;;;;4.00;3.05;;;;;;;-149.78;100.00;50303.25;5069406;28;20364;-71
2021/10/15 01:13:14;;;;;;;3.25;2.80;;;;;;;-149.78;100.00;50299.34;5066166;28;20478;-72
2021/10/15 01:15:41;;;;;;;4.43;2.40;;;;;;;-149.78;100.00;50326.72;5075685;28;20538;-71
2021/10/15 01:18:11;;;;;;;2.53;2.20;;;;;;;-149.78;100.00;50344.31;5063929;28;20029;-70
2021/10/15 01:20:36;;;;;;;5.38;1.95;;;;;;;-149.78;100.00;50330.63;5060562;28;20036;-70
2021/10/15 01:23:05;;;;;;;1.52;1.40;;;;;;;-149.78;100.00;50311.06;5056358;28;20029;-71
2021/10/15 01:25:33;;;;;;;1.55;1.20;;;;;;;-149.78;100.00;50291.50;5064076;28;20037;-70
2021/10/15 01:27:59;;;;;;;0.70;0.70;;;;;;;-149.78;100.00;50354.09;5056188;28;20114;-71
2021/10/15 01:30:25;;;;;;;0.40;0.40;;;;;;;-149.78;100.00;50373.66;5055335;28;20081;-71
2021/10/15 01:32:51;;;;;;;2.40;0.60;;;;;;;-149.78;100.00;50350.19;5066929;28;20421;-70
2021/10/15 01:35:17;;;;;;;0.65;0.52;;;;;;;-149.78;100.00;50346.28;5070040;28;20055;-71
2021/10/15 01:37:43;;;;;;;0.80;0.60;;;;;;;-149.78;100.00;50369.75;5069341;28;20032;-71
2021/10/15 01:40:10;;;;;;;0.65;0.40;;;;;;;-149.78;100.00;50371.69;5071493;28;20037;-71
2021/10/15 01:42:54;;;;;;;0.90;0.80;;;;;;;-149.78;100.00;50381.47;5068263;28;20128;-71
2021/10/15 01:45:21;;;;;;;2.85;0.70;;;;;;;-149.78;100.00;50375.63;5062896;28;20037;-71
2021/10/15 01:47:47;;;;;;;1.45;1.00;;;;;;;-149.78;100.00;50354.09;5060818;28;20826;-71
2021/10/15 01:50:12;;;;;;;2.13;1.30;;;;;;;-149.78;100.00;50350.19;5069371;28;20380;-71
2021/10/15 01:52:39;;;;;;;4.53;1.35;;;;;;;-149.78;100.00;50359.97;5065037;28;20460;-71
2021/10/15 01:55:07;;;;;;;1.80;1.40;;;;;;;-149.78;100.00;50361.91;5068424;28;20037;-71
2021/10/15 01:57:32;;;;;;;3.35;1.80;;;;;;;-149.78;100.00;50373.66;5056653;28;20044;-71
2021/10/15 01:59:58;;;;;;;4.18;2.05;;;;;;;-149.78;100.00;50381.47;5046280;28;20029;-71
2021/10/15 02:02:23;;;;;;;5.07;2.30;;;;;;;-149.78;100.00;50369.75;5061339;28;20471;-71
2021/10/15 02:04:49;;;;;;;4.63;2.20;;;;;;;-149.78;100.00;50385.38;5060740;28;20045;-71
2021/10/15 02:07:14;;;;;;;4.70;2.45;;;;;;;-149.78;100.00;50408.84;5060352;28;20123;-71
2021/10/15 02:09:41;;;;;;;5.68;2.40;;;;;;;-149.78;100.00;50373.66;5061885;28;20044;-71
2021/10/15 02:12:06;;;;;;;4.65;2.17;;;;;;;-149.78;100.00;50361.91;5059693;28;20029;-71
2021/10/15 02:14:32;;;;;;;3.28;2.17;;;;;;;-149.78;100.00;50385.38;5064493;28;20051;-71
2021/10/15 02:16:58;;;;;;;4.00;2.15;;;;;;;-149.78;100.00;50346.28;5059428;28;20041;-71
2021/10/15 02:19:23;;;;;;;3.22;1.92;;;;;;;-149.78;100.00;50385.38;5060210;28;20071;-71
2021/10/15 02:21:49;;;;;;;8.45;2.20;;;;;;;-149.78;100.00;50361.91;5059307;28;20083;-71
2021/10/15 02:24:15;;;;;;;4.07;2.38;;;;;;;-149.78;100.00;50369.75;5060553;28;20028;-71
2021/10/15 02:26:41;;;;;;;4.93;2.85;;;;;;;-149.78;100.00;50383.44;5059899;28;20033;-71
2021/10/15 02:29:06;;;;;;;3.58;2.22;;;;;;;-149.78;100.00;50361.91;5057144;28;20052;-71
2021/10/15 02:31:32;;;;;;;5.47;2.50;;;;;;;-149.78;100.00;50393.22;5057771;28;20086;-71
2021/10/15 02:33:58;;;;;;;5.93;2.70;;;;;;;-149.78;100.00;50377.56;5057525;28;20028;-71
2021/10/15 02:36:23;;;;;;;6.10;2.20;;;;;;;-149.78;100.00;50412.78;5053726;28;20376;-71
2021/10/15 02:38:49;;;;;;;6.85;2.85;;;;;;;-149.78;100.00;50422.56;5056539;28;20829;-71
2021/10/15 02:41:15;;;;;;;7.63;2.88;;;;;;;-149.78;100.00;50412.78;5066648;28;20098;-71
2021/10/15 02:43:40;;;;;;;5.10;2.88;;;;;;;-149.78;100.00;50397.13;5063685;28;20368;-71
2021/10/15 02:46:06;;;;;;;6.07;2.88;;;;;;;-149.78;100.00;50365.84;5050679;28;20053;-71
2021/10/15 02:48:31;;;;;;;5.88;2.83;;;;;;;-149.78;100.00;50395.16;5056029;28;20041;-71
2021/10/15 02:50:57;;;;;;;5.85;2.58;;;;;;;-149.78;100.00;50393.22;5065630;28;20048;-71
2021/10/15 02:53:23;;;;;;;3.90;2.40;;;;;;;-149.78;100.00;50385.38;5063146;28;20025;-71
2021/10/15 02:55:48;;;;;;;3.80;2.22;;;;;;;-149.78;100.00;50389.31;5053217;28;20037;-71
2021/10/15 02:58:14;;;;;;;4.95;2.63;;;;;;;-149.78;100.00;50385.38;5065968;28;20521;-71
2021/10/15 03:00:39;;;;;;;5.07;2.45;;;;;;;-149.78;100.00;50410.81;5046272;28;20048;-71
2021/10/15 03:03:05;;;;;;;5.88;2.75;;;;;;;-149.78;100.00;50412.78;5070912;28;20040;-71
2021/10/15 03:05:30;;;;;;;5.30;2.70;;;;;;;-149.78;100.00;50408.84;5064747;28;20106;-71
2021/10/15 03:07:56;;;;;;;5.72;3.03;;;;;;;-149.78;100.00;50369.75;5066041;28;20033;-71
2021/10/15 03:10:21;;;;;;;6.25;2.85;;;;;;;-149.78;100.00;50385.38;5056158;28;20083;-71
2021/10/15 03:12:47;;;;;;;8.23;3.20;;;;;;;-149.78;100.00;50373.66;5066935;28;20040;-71
2021/10/15 03:15:13;;;;;;;7.53;3.15;;;;;;;-149.78;100.00;50401.03;5059394;28;20068;-71
2021/10/15 03:17:38;;;;;;;13.50;3.70;;;;;;;-149.78;100.00;50412.78;5052456;28;20415;-71
2021/10/15 03:20:05;;;;;;;8.65;3.70;;;;;;;-149.78;100.00;50375.63;5053585;28;20033;-71
2021/10/15 03:22:30;;;;;;;8.32;3.45;;;;;;;-149.78;100.00;50371.69;5066105;28;20570;-71
2021/10/15 03:24:56;;;;;;;9.50;3.53;;;;;;;-149.78;100.00;50426.47;5071770;28;20103;-71
2021/10/15 03:27:22;;;;;;;8.15;4.00;;;;;;;-149.78;100.00;50373.66;5066454;28;20032;-71
2021/10/15 03:29:48;;;;;;;7.55;3.17;;;;;;;-149.78;100.00;50373.66;5056640;28;20518;-71
2021/10/15 03:32:13;;;;;;;8.05;3.72;;;;;;;-149.78;100.00;50381.47;5059874;28;20025;-71
2021/10/15 03:34:39;;;;;;;9.00;3.90;;;;;;;-149.78;100.00;50381.47;5053164;28;20055;-71
2021/10/15 03:37:05;;;;;;;8.75;3.50;;;;;;;-149.78;100.00;50383.44;5054553;28;20045;-71
2021/10/15 03:39:31;;;;;;;9.57;3.47;;;;;;;-149.78;100.00;50358.00;5054128;28;20035;-71
2021/10/15 03:41:56;;;;;;;5.82;3.05;;;;;;;-149.78;100.00;50404.94;5052403;28;20119;-71
2021/10/15 03:44:22;;;;;;;7.65;2.92;;;;;;;-149.78;100.00;50401.03;5060622;28;20044;-71
2021/10/15 03:46:48;;;;;;;5.75;2.78;;;;;;;-149.78;100.00;50365.84;5061215;28;20028;-73
2021/10/15 03:49:14;;;;;;;6.80;2.33;;;;;;;-149.78;100.00;50389.31;5063053;28;20032;-74
2021/10/15 03:51:40;;;;;;;4.28;1.95;;;;;;;-149.78;100.00;50385.38;5059660;28;20037;-74
2021/10/15 03:54:06;;;;;;;5.65;2.17;;;;;;;-149.78;100.00;50408.84;5037466;28;20048;-74
2021/10/15 03:56:32;;;;;;;3.05;1.95;;;;;;;-149.78;100.00;50404.94;5071785;28;20445;-74
2021/10/15 03:58:58;;;;;;;4.20;1.75;;;;;;;-149.78;100.00;50373.66;5057474;28;20040;-74
2021/10/15 04:01:24;;;;;;;4.68;2.10;;;;;;;-149.78;100.00;50397.13;5069237;28;20058;-74
2021/10/15 04:03:50;;;;;;;3.20;1.73;;;;;;;-149.78;100.00;50373.66;5072451;28;20064;-74
2021/10/15 04:06:16;;;;;;;3.22;1.55;;;;;;;-149.78;100.00;50404.94;5055082;28;20029;-74
2021/10/15 04:08:41;;;;;;;6.00;2.15;;;;;;;-149.78;100.00;50424.50;5073813;28;20037;-74
2021/10/15 04:11:07;;;;;;;3.00;1.50;;;;;;;-149.78;100.00;50408.84;5051285;28;20032;-74
2021/10/15 04:13:33;;;;;;;1.88;1.35;;;;;;;-149.78;100.00;50408.84;5054827;28;20438;-74
2021/10/15 04:16:02;;;;;;;7.25;1.60;;;;;;;-149.78;100.00;50389.31;5050521;28;20048;-73
2021/10/15 04:18:29;;;;;;;3.50;1.40;;;;;;;-149.78;100.00;50391.25;5061472;28;20039;-74
2021/10/15 04:20:54;;;;;;;3.47;1.40;;;;;;;-149.78;100.00;50412.78;5060393;28;20119;-74
2021/10/15 04:23:20;;;;;;;2.08;1.30;;;;;;;-149.78;100.00;50412.78;5065873;28;20116;-74
2021/10/15 04:25:47;;;;;;;7.75;1.58;;;;;;;-149.78;100.00;50424.50;5058827;28;20036;-74
2021/10/15 04:28:13;;;;;;;3.13;1.30;;;;;;;-149.78;100.00;50379.53;5068247;28;20170;-75
2021/10/15 04:30:38;;;;;;;9.68;1.58;;;;;;;-149.78;100.00;50385.38;5064845;28;20120;-74
2021/10/15 04:33:04;;;;;;;2.45;1.30;;;;;;;-149.78;100.00;50408.84;5059637;28;20033;-74
2021/10/15 04:35:29;;;;;;;6.82;1.50;;;;;;;-149.78;100.00;50424.50;5065777;28;20491;-74
2021/10/15 04:37:55;;;;;;;5.43;1.50;;;;;;;-149.78;100.00;50383.44;5061891;28;20528;-74
2021/10/15 04:40:21;;;;;;;4.15;1.20;;;;;;;-149.78;100.00;50408.84;5051378;28;20033;-74
2021/10/15 04:42:47;;;;;;;3.22;1.20;;;;;;;-149.78;100.00;50404.94;5057991;28;20059;-74
2021/10/15 04:45:13;;;;;;;3.25;1.48;;;;;;;-149.78;100.00;50428.41;5068994;28;20381;-74
2021/10/15 04:47:38;;;;;;;5.57;1.00;;;;;;;-149.78;100.00;50412.78;5057792;28;21222;-74
2021/10/15 04:50:05;;;;;;;3.33;1.00;;;;;;;-149.78;100.00;50412.78;5063162;28;20039;-75
2021/10/15 04:52:31;;;;;;;6.28;1.25;;;;;;;-149.78;100.00;50391.25;5051555;28;20055;-74
2021/10/15 04:54:57;;;;;;;4.15;1.40;;;;;;;-149.78;100.00;50440.16;5060852;28;20032;-73
2021/10/15 04:57:22;;;;;;;5.90;1.02;;;;;;;-149.78;100.00;50416.69;5056640;28;20033;-74
2021/10/15 04:59:48;;;;;;;4.75;1.45;;;;;;;-149.78;100.00;50428.41;5052854;28;20068;-74
2021/10/15 05:02:14;;;;;;;1.73;1.00;;;;;;;-149.78;100.00;50434.28;5052693;28;20431;-74
2021/10/15 05:04:41;;;;;;;3.10;1.15;;;;;;;-149.78;100.00;50404.94;5051155;28;20087;-73
2021/10/15 05:07:07;;;;;;;9.25;1.20;;;;;;;-149.78;100.00;50422.56;5051087;28;20044;-75
2021/10/15 05:09:33;;;;;;;1.90;1.10;;;;;;;-149.78;100.00;50447.97;5063995;28;20446;-74
2021/10/15 05:12:04;;;;;;;2.85;1.30;;;;;;;-149.78;100.00;50408.84;5059756;28;20037;-74
2021/10/15 05:14:32;;;;;;;2.70;1.23;;;;;;;-149.78;100.00;50389.31;5070688;28;20460;-74
2021/10/15 05:17:00;;;;;;;9.32;2.05;;;;;;;-149.78;100.00;50385.38;5051650;28;20082;-74
2021/10/15 05:19:26;;;;;;;6.80;1.40;;;;;;;-149.78;100.00;50385.38;5052579;28;20128;-74
2021/10/15 05:21:51;;;;;;;8.82;2.03;;;;;;;-149.78;100.00;50414.72;5054379;28;20025;-74
2021/10/15 05:24:18;;;;;;;4.00;1.13;;;;;;;-149.78;100.00;50451.88;5060087;28;20060;-74
2021/10/15 05:26:44;;;;;;;3.85;1.60;;;;;;;-149.78;100.00;50408.84;5064818;28;20025;-74
2021/10/15 05:29:10;;;;;;;7.95;1.20;;;;;;;-149.78;100.00;50440.16;5052926;28;20052;-74
2021/10/15 05:31:36;;;;;;;8.98;1.77;;;;;;;-149.78;100.00;50432.31;5053473;28;20113;-74
2021/10/15 05:34:02;;;;;;;3.03;0.98;;;;;;;-149.78;100.00;50410.81;5065667;28;20464;-74
2021/10/15 05:36:28;;;;;;;5.70;1.20;;;;;;;-149.78;100.00;50416.69;5063660;28;20492;-74
2021/10/15 05:38:54;;;;;;;3.20;1.17;;;;;;;-149.78;100.00;50412.78;5073039;28;20024;-74
2021/10/15 05:41:20;;;;;;;3.22;1.20;;;;;;;-149.78;100.00;50418.63;5072268;28;20041;-74
2021/10/15 05:43:46;;;;;;;4.15;1.30;;;;;;;-149.78;100.00;50418.63;5054395;28;20036;-73
2021/10/15 05:46:12;;;;;;;5.25;1.30;;;;;;;-149.78;100.00;50438.19;5058395;28;20032;-74
2021/10/15 05:48:37;;;;;;;2.33;0.90;;;;;;;-149.78;100.00;50412.78;5057607;28;20059;-74
2021/10/15 05:51:03;;;;;;;6.40;1.55;;;;;;;-149.78;100.00;50447.97;5065252;28;20040;-75
2021/10/15 05:53:32;;;;;;;4.80;1.75;;;;;;;-149.78;100.00;50416.69;5060586;28;20033;-74
2021/10/15 05:56:17;;;;;;;4.93;1.52;;;;;;;-149.78;100.00;50447.97;5062109;28;20066;-74
2021/10/15 05:58:49;;;;;;;4.40;1.20;;;;;;;-149.78;100.00;50404.94;5067775;28;20037;-74
2021/10/15 06:01:15;;;;;;;7.53;1.88;;;;;;;-149.78;100.00;50440.16;5065811;28;20472;-74
2021/10/15 06:03:44;;;;;;;14.68;2.30;;;;;;;-149.78;100.00;50440.16;5062985;28;20063;-74
2021/10/15 06:14:26;;;;;;;3.85;1.30;;;;;;;-149.78;100.00;50424.50;5067239;28;20045;-72
2021/10/15 06:16:54;;;;;;;3.10;1.08;;;;;;;-149.78;100.00;50424.50;5065377;28;20369;-73
2021/10/15 06:19:23;;;;;;;5.43;1.60;;;;;;;-149.78;100.00;50430.38;5061781;28;20032;-73
2021/10/15 06:21:50;;;;;;;3.95;1.27;;;;;;;-149.78;100.00;50471.44;5055528;28;20033;-74
2021/10/15 06:24:16;;;;;;;2.47;1.02;;;;;;;-149.78;100.00;50416.69;5059188;28;20032;-73
2021/10/15 06:26:44;;;;;;;7.38;1.58;;;;;;;-149.78;100.00;50393.22;5059384;28;20036;-72
2021/10/15 06:29:09;;;;;;;4.57;1.20;;;;;;;-149.78;100.00;50428.41;5059307;28;20097;-72
2021/10/15 06:31:35;;;;;;;3.15;1.20;;;;;;;-149.78;100.00;50424.50;5066816;28;20064;-73
2021/10/15 06:34:01;;;;;;;4.95;1.30;;;;;;;-149.78;100.00;50432.31;5063417;28;20056;-72
2021/10/15 06:36:27;;;;;;;4.05;1.55;;;;;;;-149.78;100.00;50412.78;5063095;28;20044;-73
2021/10/15 06:38:52;;;;;;;10.30;1.75;;;;;;;-149.78;100.00;50436.25;5056318;28;20519;-74
2021/10/15 06:41:19;;;;;;;7.43;1.40;;;;;;;-149.78;100.00;50436.25;5063682;28;20033;-73
2021/10/15 06:43:45;;;;;;;1.67;0.80;;;;;;;-149.78;100.00;50436.25;5062459;28;20028;-73
2021/10/15 06:46:11;;;;;;;4.00;1.25;;;;;;;-149.78;100.00;50436.25;5061641;28;20032;-73
2021/10/15 06:48:37;;;;;;;3.15;1.23;;;;;;;-149.78;100.00;50395.16;5060941;28;20041;-73
2021/10/15 06:51:03;;;;;;;1.73;1.10;;;;;;;-149.78;100.00;50451.88;5065276;28;20029;-73
2021/10/15 06:53:28;;;;;;;3.63;1.25;;;;;;;-149.78;100.00;50408.84;5069707;28;20040;-73
2021/10/15 06:55:54;;;;;;;2.60;1.10;;;;;;;-149.78;100.00;50424.50;5062654;28;20044;-73
2021/10/15 06:58:19;;;;;;;4.53;1.52;;;;;;;-149.78;100.00;50412.78;5075719;28;20047;-73
2021/10/15 07:00:47;;;;;;;2.70;1.08;;;;;;;-149.78;100.00;50449.94;5067618;28;20043;-75
2021/10/15 07:03:17;;;;;;;4.13;1.30;;;;;;;-149.78;100.00;50432.31;5068436;28;20044;-75
2021/10/15 07:05:43;;;;;;;2.65;1.10;;;;;;;-149.78;100.00;50440.16;5060139;28;20472;-74
2021/10/15 07:08:09;;;;;;;3.08;1.20;;;;;;;-149.78;100.00;50440.16;5056423;28;20074;-72
2021/10/15 07:10:36;;;;;;;2.80;1.20;;;;;;;-149.78;100.00;50440.16;5060143;28;20111;-72
2021/10/15 07:13:02;;;;;;;7.30;1.40;;;;;;;-149.78;100.00;50440.16;5059752;28;20051;-72
2021/10/15 07:15:28;;;;;;;5.70;1.40;;;;;;;-149.78;100.00;50420.59;5058810;28;20073;-72
2021/10/15 07:17:54;;;;;;;3.08;1.45;;;;;;;-149.78;100.00;50440.16;5065605;28;20113;-73
2021/10/15 07:20:19;;;;;;;4.03;1.45;;;;;;;-149.78;100.00;50428.41;5060665;28;20062;-73
2021/10/15 07:22:45;;;;;;;4.68;2.03;;;;;;;-149.78;100.00;50463.63;5065490;28;20462;-70
2021/10/15 07:25:11;;;;;;;4.38;1.30;;;;;;;-149.78;100.00;50408.84;5068356;28;20487;-70
2021/10/15 07:27:39;;;;;;;3.13;1.10;;;;;;;-149.78;100.00;50479.28;5064386;28;20040;-71
2021/10/15 07:30:06;;;;;;;6.75;1.27;;;;;;;-149.78;100.00;50424.50;5063222;28;20040;-71
2021/10/15 07:32:34;;;;;;;2.30;1.10;;;;;;;-149.78;100.00;50424.50;5066488;28;20037;-72
2021/10/15 07:35:00;;;;;;;2.72;1.52;;;;;;;-149.78;100.00;50455.81;5070513;28;20380;-71
2021/10/15 07:37:26;;;;;;;3.17;1.52;;;;;;;-149.78;100.00;50436.25;5065700;28;20071;-71
2021/10/15 07:39:52;;;;;;;3.20;1.35;;;;;;;-149.78;100.00;50440.16;5071510;28;20040;-71
2021/10/15 07:42:18;;;;;;;17.92;4.88;;;;;;;-149.78;100.00;50432.31;5068028;28;20032;-71
2021/10/15 07:44:44;;;;;;;16.10;6.85;;;;;;;-149.78;100.00;50440.16;5052186;28;20033;-71
2021/10/15 07:47:09;;;;;;;9.40;4.38;;;;;;;-149.78;100.00;50440.16;5070904;28;20024;-71
2021/10/15 07:49:37;;;;;;;3.20;1.30;;;;;;;-149.78;100.00;50440.16;5058205;28;20036;-73
2021/10/15 07:52:03;;;;;;;5.05;1.55;;;;;;;-149.78;100.00;50432.31;5069698;28;20044;-73
2021/10/15 07:54:29;;;;;;;8.70;1.40;;;;;;;-149.78;100.00;50440.16;5058014;28;20469;-71
2021/10/15 07:56:54;;;;;;;4.18;0.93;;;;;;;-149.78;100.00;50397.13;5060866;28;20039;-71
2021/10/15 07:59:20;;;;;;;10.05;2.28;;;;;;;-149.78;100.00;50412.78;5078572;28;20562;-71
2021/10/15 08:01:46;;;;;;;2.45;1.30;;;;;;;-149.78;100.00;50428.41;5074013;28;20492;-70
2021/10/15 08:04:13;;;;;;;6.13;1.33;;;;;;;-149.78;100.00;50432.31;5073978;28;20460;-70
2021/10/15 08:06:39;;;;;;;4.05;1.10;;;;;;;-149.78;100.00;50401.03;5064728;28;20036;-72
2021/10/15 08:09:05;;;;;;;6.05;0.93;;;;;;;-149.78;100.00;50350.19;5053458;28;20060;-70
2021/10/15 08:11:31;;;;;;;3.45;1.75;;;;;;;-149.78;100.00;50299.34;5068343;28;20055;-70
2021/10/15 08:13:57;;;;;;;3.45;1.05;;;;;;;-149.78;100.00;50275.88;5068408;28;20029;-72
2021/10/15 08:16:23;;;;;;;3.78;1.33;;;;;;;-149.78;100.00;50256.31;5053490;28;20076;-72
2021/10/15 08:18:50;;;;;;;2.97;0.93;;;;;;;-149.78;78.74;50236.75;5069935;28;20060;-72
2021/10/15 08:21:18;;;;;;;2.38;0.90;;;;;;;-149.78;73.88;50213.28;5059555;28;20043;-73
2021/10/15 08:23:44;;;;;;;4.20;1.30;;;;;;;-149.78;63.71;50225.03;5067578;28;20037;-73
2021/10/15 08:26:10;;;;;;;4.65;1.40;;;;;;;-149.78;64.98;50217.19;5072137;28;20056;-71
2021/10/15 08:28:35;;;;;;;4.07;1.08;;;;;;;-149.78;61.09;50209.38;5064191;28;20104;-72
2021/10/15 08:31:03;;;;;;;2.65;0.93;;;;;;;-149.78;59.35;50189.81;5069109;28;20083;-71
2021/10/15 08:33:29;;;;;;;3.65;1.20;;;;;;;-149.78;57.65;50205.47;5062946;28;20533;-71
2021/10/15 08:35:54;;;;;;;2.50;1.10;;;;;;;-149.78;57.15;50189.81;5072840;28;20119;-71
2021/10/15 08:38:20;;;;;;;3.00;1.08;;;;;;;-149.78;58.77;50201.56;5078374;28;20096;-73
2021/10/15 08:40:46;;;;;;;2.40;1.10;;;;;;;-149.78;58.34;50201.56;5067944;28;20060;-72
2021/10/15 08:43:12;;;;;;;4.75;1.10;;;;;;;-149.78;56.38;50166.34;5070415;28;20029;-72
2021/10/15 08:45:40;;;;;;;4.93;1.17;;;;;;;-149.78;54.25;50138.97;5064795;28;20024;-72
2021/10/15 08:48:06;;;;;;;6.90;1.10;;;;;;;-149.78;53.09;50127.25;5067883;28;20037;-73
2021/10/15 08:50:32;;;;;;;4.93;1.35;;;;;;;-149.78;52.30;50176.13;5064218;28;20051;-75
2021/10/15 08:52:58;;;;;;;2.70;1.40;;;;;;;-149.78;57.42;50197.66;5054601;28;20091;-73
2021/10/15 08:55:24;;;;;;;3.42;1.38;;;;;;;-149.78;56.30;50174.19;5054447;28;20044;-73
2021/10/15 08:57:55;;;;;;;6.47;1.50;;;;;;;-149.78;60.03;50232.84;5053760;28;20053;-72
2021/10/15 09:00:25;;;;;;;4.50;1.20;;;;;;;-149.78;59.35;50232.84;5065817;28;20032;-70
2021/10/15 09:03:21;;;;;;;5.30;1.60;;;;;;;-149.78;57.58;50189.81;5067085;28;20024;-69
2021/10/15 09:06:00;;;;;;;3.83;1.70;;;;;;;-149.78;56.04;50178.09;5059875;28;20024;-70
2021/10/15 09:08:44;;;;;;;5.50;1.65;;;;;;;-149.78;58.16;50201.56;5070161;28;20064;-69
2021/10/15 09:11:27;;;;;;;5.47;2.00;;;;;;;-149.78;52.53;50146.81;5068624;28;20401;-70
2021/10/15 09:14:23;;;;;;;4.13;1.50;;;;;;;-149.78;51.26;50138.97;5072286;28;20028;-70
2021/10/15 09:16:56;;;;;;;12.38;1.75;;;;;;;-149.78;51.27;50146.81;5072271;28;20419;-70
2021/10/15 09:19:27;;;;;;;3.65;1.42;;;;;;;-149.78;52.41;50150.72;5076149;28;20021;-69
2021/10/15 09:22:23;;;;;;;6.27;1.63;;;;;;;-149.78;53.42;50170.25;5058425;28;20050;-69
2021/10/15 09:25:06;;;;;;;5.25;1.60;;;;;;;-149.78;51.37;50127.25;5068785;28;20074;-69
2021/10/15 09:27:40;;;;;;;4.57;1.50;;;;;;;-149.78;50.29;50135.06;5067486;28;20031;-69
2021/10/15 09:30:15;;;;;;;2.60;1.42;;;;;;;-149.78;50.77;50158.53;5064499;28;20048;-70
2021/10/15 09:32:50;;;;;;;3.28;1.35;;;;;;;-149.78;51.19;50166.34;5068529;28;20040;-70
2021/10/15 09:35:20;;;;;;;3.00;1.58;;;;;;;-149.78;54.81;50205.47;5066509;28;20116;-70
2021/10/15 09:37:49;;;;;;;11.00;1.52;;;;;;;-149.78;52.51;50123.34;5069421;28;20044;-69
2021/10/15 09:40:23;;;;;;;6.05;1.65;;;;;;;-149.78;53.15;50182.00;5059909;28;20122;-69
2021/10/15 09:42:57;;;;;;;5.32;1.52;;;;;;;-149.78;54.09;50183.97;5061947;28;20036;-69
2021/10/15 09:45:32;;;;;;;5.53;1.73;;;;;;;-149.78;54.98;50201.56;5060980;28;20028;-69
2021/10/15 09:48:00;;;;;;;6.10;1.60;;;;;;;-149.78;52.33;50131.16;5076123;28;20021;-70
2021/10/15 09:50:36;;;;;;;4.53;1.90;;;;;;;-149.78;52.06;50148.75;5077492;28;20032;-69
2021/10/15 09:53:04;;;;;;;7.70;1.90;;;;;;;-149.78;54.88;50158.53;5071267;28;20021;-69
2021/10/15 09:55:36;;;;;;;4.90;1.65;;;;;;;-149.78;52.67;50162.44;5063119;28;20041;-71
2021/10/15 09:58:27;;;;;;;10.07;2.38;;;;;;;-149.78;52.36;50154.63;5070869;28;20040;-70
2021/10/15 10:00:54;;;;;;;9.05;2.38;;;;;;;-149.78;52.10;50109.66;5074716;28;20464;-68
2021/10/15 10:03:22;;;;;;;9.02;2.25;;;;;;;-149.78;50.14;50127.25;5062026;28;20063;-69
2021/10/15 10:05:49;;;;;;;6.40;1.90;;;;;;;-149.78;52.22;50162.44;5056764;28;20033;-69
2021/10/15 10:08:17;;;;;;;10.20;1.92;;;;;;;-149.78;50.88;50107.69;5062768;28;20502;-69
2021/10/15 10:10:43;;;;;;;7.88;1.85;;;;;;;-149.78;52.30;50178.09;5058117;28;20087;-69
2021/10/15 10:13:12;;;;;;;5.53;1.80;;;;;;;-149.78;53.96;50183.97;5061466;28;20033;-69
2021/10/15 10:15:43;;;;;;;11.35;2.70;;;;;;;-149.78;54.06;50209.38;5059442;28;20083;-69
2021/10/15 10:18:30;;;;;;;8.70;2.37;;;;;;;-149.78;55.45;50211.34;5067274;28;20025;-70
2021/10/15 10:21:17;;;;;;;8.38;1.95;;;;;;;-149.78;56.49;50174.19;5070953;28;20624;-70
2021/10/15 10:23:55;;;;;;;7.22;1.90;;;;;;;-149.78;56.65;50174.19;5069110;28;20443;-70
2021/10/15 10:26:22;;;;;;;7.47;1.65;;;;;;;-149.78;58.33;50209.38;5067951;28;20028;-70
2021/10/15 10:29:00;;;;;;;9.32;2.30;;;;;;;-149.78;54.74;50176.13;5057891;28;20029;-70
2021/10/15 10:31:25;;;;;;;10.18;2.63;;;;;;;-149.78;61.24;50205.47;5054903;28;20118;-70
2021/10/15 10:33:55;;;;;;;7.90;2.15;;;;;;;-149.78;65.78;50256.31;5075724;28;20064;-70
2021/10/15 10:36:21;;;;;;;10.82;2.10;;;;;;;-149.78;64.28;50260.22;5076836;28;20028;-70
2021/10/15 10:38:47;;;;;;;11.77;2.90;;;;;;;-149.78;67.17;50234.81;5080377;28;20044;-70
2021/10/15 10:41:31;;;;;;;7.80;2.58;;;;;;;-149.78;67.88;50236.75;5073143;28;20028;-70
2021/10/15 10:43:56;;;;;;;9.95;2.10;;;;;;;-149.78;65.28;50240.66;5066444;28;20033;-70
2021/10/15 10:46:31;;;;;;;11.38;2.47;;;;;;;-149.78;70.81;50256.31;5076049;28;20103;-70
2021/10/15 10:48:56;;;;;;;8.07;2.50;;;;;;;-149.78;73.25;50256.31;5066922;28;20036;-72
2021/10/15 10:51:30;;;;;;;11.85;2.53;;;;;;;-149.78;76.56;50285.66;5057924;28;20042;-70
2021/10/15 10:53:59;;;;;;;14.07;2.22;;;;;;;-149.78;75.03;50279.78;5064249;28;20443;-71
2021/10/15 10:56:37;;;;;;;7.55;2.45;;;;;;;-149.78;70.81;50254.34;5058028;28;20031;-70
2021/10/15 10:59:18;;;;;;;7.68;2.58;;;;;;;-149.78;65.99;50256.31;5063546;28;20039;-70
2021/10/15 11:01:54;;;;;;;10.33;2.27;;;;;;;-149.78;63.75;50252.41;5071185;28;20024;-72
2021/10/15 11:04:34;;;;;;;9.98;2.63;;;;;;;-149.78;71.06;50254.34;5059639;28;20031;-70
2021/10/15 11:07:08;;;;;;;10.07;2.03;;;;;;;-149.78;76.01;50271.97;5052896;28;20095;-72
2021/10/15 11:09:41;;;;;;;14.70;3.25;;;;;;;-149.78;72.52;50271.97;5065554;28;20037;-71
2021/10/15 11:12:08;;;;;;;10.82;2.47;;;;;;;-149.78;69.14;50260.22;5058962;28;20028;-72
2021/10/15 11:15:11;;;;;;;10.25;2.70;;;;;;;-149.78;66.63;50248.50;5072910;28;20034;-72
2021/10/15 11:17:45;;;;;;;8.82;2.05;;;;;;;-149.78;65.92;50244.59;5070707;28;20408;-71
2021/10/15 11:20:32;;;;;;;6.18;1.95;;;;;;;-149.78;63.20;50228.94;5069162;28;20082;-71
2021/10/15 11:23:07;;;;;;;9.52;2.30;;;;;;;-149.78;60.18;50217.19;5075439;28;20036;-71